createdAt,value
2018-03-15T00:00:27.803Z,11.87
2018-03-15T00:01:28.273Z,11.87
2018-03-15T00:02:28.745Z,11.85
2018-03-15T00:03:29.215Z,11.85
2018-03-15T00:04:29.688Z,11.84
2018-03-15T00:05:30.158Z,11.84
2018-03-15T00:06:30.629Z,11.82
2018-03-15T00:07:31.102Z,11.82
2018-03-15T00:08:31.622Z,11.80
2018-03-15T00:09:32.043Z,11.78
2018-03-15T00:10:32.515Z,11.79
2018-03-15T00:11:33.141Z,11.78
2018-03-15T00:12:33.458Z,11.79
2018-03-15T00:13:33.932Z,11.75
2018-03-15T00:14:34.407Z,11.73
2018-03-15T00:15:34.870Z,11.72
2018-03-15T00:16:35.396Z,11.71
2018-03-15T00:17:35.813Z,11.72
2018-03-15T00:18:36.284Z,11.71
2018-03-15T00:19:36.756Z,11.72
2018-03-15T00:20:37.227Z,11.73
2018-03-15T00:21:37.698Z,11.72
2018-03-15T00:22:38.167Z,11.72
2018-03-15T00:23:38.642Z,11.72
2018-03-15T00:24:39.111Z,11.73
2018-03-15T00:25:39.586Z,11.74
2018-03-15T00:26:40.143Z,11.71
2018-03-15T00:27:40.525Z,11.72
2018-03-15T00:28:40.995Z,11.71
2018-03-15T00:29:41.468Z,11.68
2018-03-15T00:30:41.938Z,11.67
2018-03-15T00:31:42.409Z,11.68
2018-03-15T00:32:42.878Z,11.69
2018-03-15T00:33:43.348Z,11.67
2018-03-15T00:34:43.820Z,11.64
2018-03-15T00:35:44.293Z,11.65
2018-03-15T00:36:44.814Z,11.65
2018-03-15T00:37:45.234Z,11.64
2018-03-15T00:38:45.710Z,11.64
2018-03-15T00:39:46.236Z,11.63
2018-03-15T00:40:46.647Z,11.62
2018-03-15T00:41:47.118Z,11.63
2018-03-15T00:42:47.590Z,11.60
2018-03-15T00:43:48.062Z,11.60
2018-03-15T00:44:48.531Z,11.60
2018-03-15T00:45:49.001Z,11.59
2018-03-15T00:46:49.474Z,11.58
2018-03-15T00:47:49.945Z,11.59
2018-03-15T00:48:50.414Z,11.61
2018-03-15T00:49:50.890Z,11.60
2018-03-15T00:50:51.356Z,11.58
2018-03-15T00:51:51.833Z,11.56
2018-03-15T00:52:52.298Z,11.56
2018-03-15T00:53:52.772Z,11.55
2018-03-15T00:54:53.239Z,11.55
2018-03-15T00:55:53.711Z,11.51
2018-03-15T00:56:54.182Z,11.52
2018-03-15T00:57:54.652Z,11.51
2018-03-15T00:58:55.124Z,11.51
2018-03-15T00:59:55.596Z,11.48
2018-03-15T01:00:56.064Z,11.49
2018-03-15T01:01:56.537Z,11.46
2018-03-15T01:02:57.035Z,11.46
2018-03-15T01:03:57.680Z,11.46
2018-03-15T01:04:57.953Z,11.46
2018-03-15T01:05:58.420Z,11.46
2018-03-15T01:06:58.942Z,11.48
2018-03-15T01:07:59.362Z,11.47
2018-03-15T01:08:59.831Z,11.47
2018-03-15T01:10:00.302Z,11.42
2018-03-15T01:11:00.775Z,11.43
2018-03-15T01:12:01.254Z,11.41
2018-03-15T01:13:01.715Z,11.42
2018-03-15T01:14:02.186Z,11.43
2018-03-15T01:15:02.657Z,11.42
2018-03-15T01:16:03.127Z,11.43
2018-03-15T01:17:03.650Z,11.41
2018-03-15T01:18:04.068Z,11.41
2018-03-15T01:19:04.540Z,11.42
2018-03-15T01:20:05.012Z,11.40
2018-03-15T01:21:05.481Z,11.40
2018-03-15T01:22:06.003Z,11.40
2018-03-15T01:23:06.423Z,11.41
2018-03-15T01:24:06.894Z,11.39
2018-03-15T01:25:07.364Z,11.41
2018-03-15T01:26:07.834Z,11.36
2018-03-15T01:27:08.303Z,11.37
2018-03-15T01:28:08.774Z,11.36
2018-03-15T01:29:09.251Z,11.36
2018-03-15T01:30:09.719Z,11.34
2018-03-15T01:31:10.195Z,11.34
2018-03-15T01:32:10.658Z,11.35
2018-03-15T01:33:11.131Z,11.35
2018-03-15T01:34:11.599Z,11.36
2018-03-15T01:35:12.069Z,11.36
2018-03-15T01:36:12.540Z,11.35
2018-03-15T01:37:13.011Z,11.36
2018-03-15T01:38:13.482Z,11.36
2018-03-15T01:39:13.951Z,11.34
2018-03-15T01:40:14.423Z,11.32
2018-03-15T01:41:14.894Z,11.31
2018-03-15T01:42:15.364Z,11.32
2018-03-15T01:43:15.836Z,11.34
2018-03-15T01:44:16.307Z,11.34
2018-03-15T01:45:16.776Z,11.34
2018-03-15T01:46:17.249Z,11.36
2018-03-15T01:47:17.768Z,11.33
2018-03-15T01:48:18.230Z,11.31
2018-03-15T01:49:18.658Z,11.30
2018-03-15T01:50:19.129Z,11.30
2018-03-15T01:51:19.601Z,11.29
2018-03-15T01:52:20.071Z,11.31
2018-03-15T01:53:20.542Z,11.30
2018-03-15T01:54:21.011Z,11.29
2018-03-15T01:55:21.481Z,11.28
2018-03-15T01:56:21.954Z,11.29
2018-03-15T01:57:22.476Z,11.28
2018-03-15T01:58:22.897Z,11.27
2018-03-15T01:59:23.366Z,11.29
2018-03-15T02:00:23.838Z,11.26
2018-03-15T02:01:24.311Z,11.25
2018-03-15T02:02:24.779Z,11.27
2018-03-15T02:03:25.249Z,11.26
2018-03-15T02:04:25.720Z,11.28
2018-03-15T02:05:26.190Z,11.27
2018-03-15T02:06:26.660Z,11.26
2018-03-15T02:07:27.181Z,11.27
2018-03-15T02:08:27.602Z,11.26
2018-03-15T02:09:28.072Z,11.27
2018-03-15T02:10:28.543Z,11.26
2018-03-15T02:11:29.012Z,11.27
2018-03-15T02:12:29.485Z,11.27
2018-03-15T02:13:29.954Z,11.27
2018-03-15T02:14:30.427Z,11.29
2018-03-15T02:15:30.895Z,11.27
2018-03-15T02:16:31.368Z,11.29
2018-03-15T02:17:31.836Z,11.28
2018-03-15T02:18:32.308Z,11.27
2018-03-15T02:19:32.777Z,11.26
2018-03-15T02:20:33.250Z,11.24
2018-03-15T02:21:33.719Z,11.24
2018-03-15T02:22:34.189Z,11.24
2018-03-15T02:23:34.662Z,11.26
2018-03-15T02:24:35.130Z,11.24
2018-03-15T02:25:35.600Z,11.26
2018-03-15T02:26:36.070Z,11.26
2018-03-15T02:27:36.543Z,11.27
2018-03-15T02:28:37.013Z,11.25
2018-03-15T02:29:37.482Z,11.26
2018-03-15T02:30:37.952Z,11.25
2018-03-15T02:31:38.430Z,11.24
2018-03-15T02:32:38.945Z,11.24
2018-03-15T02:33:39.364Z,11.24
2018-03-15T02:34:39.838Z,11.26
2018-03-15T02:35:40.306Z,11.23
2018-03-15T02:36:40.813Z,11.23
2018-03-15T02:37:41.247Z,11.23
2018-03-15T02:38:41.719Z,11.25
2018-03-15T02:39:42.189Z,11.25
2018-03-15T02:40:42.661Z,11.26
2018-03-15T02:41:43.128Z,11.24
2018-03-15T02:42:43.602Z,11.24
2018-03-15T02:43:44.074Z,11.24
2018-03-15T02:44:44.541Z,11.25
2018-03-15T02:45:45.010Z,11.21
2018-03-15T02:46:45.483Z,11.21
2018-03-15T02:47:45.954Z,11.19
2018-03-15T02:48:46.422Z,11.19
2018-03-15T02:49:46.892Z,11.17
2018-03-15T02:50:47.362Z,11.18
2018-03-15T02:51:47.833Z,11.16
2018-03-15T02:52:48.505Z,11.16
2018-03-15T02:53:48.773Z,11.16
2018-03-15T02:54:49.243Z,11.17
2018-03-15T02:55:49.719Z,11.17
2018-03-15T02:56:50.185Z,11.17
2018-03-15T02:57:50.657Z,11.17
2018-03-15T02:58:51.125Z,11.17
2018-03-15T02:59:51.597Z,11.16
2018-03-15T03:00:52.107Z,11.14
2018-03-15T03:01:52.543Z,11.14
2018-03-15T03:03:53.481Z,11.14
2018-03-15T03:04:53.954Z,11.11
2018-03-15T03:05:54.423Z,11.13
2018-03-15T03:06:54.896Z,11.12
2018-03-15T03:07:55.364Z,11.11
2018-03-15T03:08:55.830Z,11.10
2018-03-15T03:09:56.305Z,11.09
2018-03-15T03:10:56.775Z,11.10
2018-03-15T03:11:57.246Z,11.11
2018-03-15T03:12:57.719Z,11.10
2018-03-15T03:13:58.187Z,11.07
2018-03-15T03:14:58.655Z,11.08
2018-03-15T03:15:59.126Z,11.06
2018-03-15T03:16:59.595Z,11.06
2018-03-15T03:18:00.327Z,11.09
2018-03-15T03:19:00.537Z,11.09
2018-03-15T03:21:01.473Z,11.08
2018-03-15T03:22:01.949Z,11.10
2018-03-15T03:23:02.417Z,11.11
2018-03-15T03:24:02.888Z,11.11
2018-03-15T03:25:03.359Z,11.13
2018-03-15T03:26:03.831Z,11.11
2018-03-15T03:27:04.294Z,11.10
2018-03-15T03:28:04.772Z,11.11
2018-03-15T03:29:05.245Z,11.09
2018-03-15T03:30:05.710Z,11.09
2018-03-15T03:31:06.176Z,11.10
2018-03-15T03:32:06.652Z,11.09
2018-03-15T03:33:07.120Z,11.07
2018-03-15T03:34:07.593Z,11.08
2018-03-15T03:35:08.061Z,11.08
2018-03-15T03:36:08.527Z,11.10
2018-03-15T03:37:09.003Z,11.08
2018-03-15T03:39:09.943Z,11.09
2018-03-15T03:40:10.415Z,11.08
2018-03-15T03:41:10.887Z,11.08
2018-03-15T03:42:11.356Z,11.07
2018-03-15T03:43:11.820Z,11.06
2018-03-15T03:44:12.294Z,11.04
2018-03-15T03:45:12.765Z,11.03
2018-03-15T03:46:13.232Z,11.05
2018-03-15T03:47:13.701Z,11.04
2018-03-15T03:48:14.176Z,11.03
2018-03-15T03:49:14.643Z,11.03
2018-03-15T03:50:15.114Z,11.08
2018-03-15T03:51:15.584Z,11.09
2018-03-15T03:52:16.054Z,11.07
2018-03-15T03:53:16.524Z,11.06
2018-03-15T03:54:16.995Z,11.03
2018-03-15T03:55:17.464Z,11.02
2018-03-15T03:56:17.940Z,11.02
2018-03-15T03:57:18.405Z,11.03
2018-03-15T03:59:19.346Z,11.02
2018-03-15T04:00:19.818Z,11.00
2018-03-15T04:01:20.287Z,11.01
2018-03-15T04:02:20.756Z,10.98
2018-03-15T04:03:21.233Z,11.00
2018-03-15T04:05:22.167Z,11.02
2018-03-15T04:06:22.637Z,11.03
2018-03-15T04:07:23.107Z,11.04
2018-03-15T04:08:23.775Z,11.06
2018-03-15T04:09:24.053Z,11.07
2018-03-15T04:10:24.517Z,11.06
2018-03-15T04:11:24.987Z,11.08
2018-03-15T04:12:25.797Z,11.06
2018-03-15T04:13:25.928Z,11.07
2018-03-15T04:14:26.398Z,11.06
2018-03-15T04:15:26.874Z,11.08
2018-03-15T04:16:27.339Z,11.08
2018-03-15T04:17:27.805Z,11.07
2018-03-15T04:18:39.960Z,11.08
2018-03-15T04:19:28.751Z,11.09
2018-03-15T04:20:29.259Z,11.07
2018-03-15T04:21:29.690Z,11.06
2018-03-15T04:22:30.159Z,11.06
2018-03-15T04:24:31.096Z,11.06
2018-03-15T04:25:31.571Z,11.05
2018-03-15T04:26:32.042Z,11.04
2018-03-15T04:27:32.508Z,11.06
2018-03-15T04:28:32.981Z,11.07
2018-03-15T04:29:33.451Z,11.07
2018-03-15T04:30:33.921Z,11.05
2018-03-15T04:31:34.392Z,11.02
2018-03-15T04:32:34.864Z,11.02
2018-03-15T04:33:35.380Z,11.02
2018-03-15T04:34:35.803Z,11.03
2018-03-15T04:35:36.272Z,11.05
2018-03-15T04:36:36.744Z,11.05
2018-03-15T04:37:37.209Z,11.02
2018-03-15T04:38:37.733Z,11.01
2018-03-15T04:39:38.154Z,11.03
2018-03-15T04:41:39.089Z,11.00
2018-03-15T04:42:39.564Z,10.99
2018-03-15T04:43:40.034Z,11.01
2018-03-15T04:44:40.504Z,11.00
2018-03-15T04:45:40.974Z,10.98
2018-03-15T04:46:41.444Z,10.98
2018-03-15T04:47:41.939Z,10.98
2018-03-15T04:48:42.385Z,10.97
2018-03-15T04:49:42.858Z,10.96
2018-03-15T04:50:43.324Z,10.95
2018-03-15T04:51:43.793Z,10.95
2018-03-15T04:52:44.269Z,10.96
2018-03-15T04:53:44.739Z,10.96
2018-03-15T04:54:45.205Z,10.96
2018-03-15T04:55:45.675Z,10.96
2018-03-15T04:56:46.145Z,10.95
2018-03-15T04:57:46.612Z,11.00
2018-03-15T04:58:47.087Z,10.97
2018-03-15T04:59:47.555Z,10.99
2018-03-15T05:00:48.027Z,10.98
2018-03-15T05:01:48.497Z,10.96
2018-03-15T05:02:48.967Z,10.97
2018-03-15T05:03:49.634Z,10.98
2018-03-15T05:04:50.247Z,10.99
2018-03-15T05:05:50.384Z,10.96
2018-03-15T05:06:50.851Z,10.98
2018-03-15T05:07:51.317Z,10.98
2018-03-15T05:08:51.786Z,10.96
2018-03-15T05:09:52.257Z,10.95
2018-03-15T05:10:52.727Z,10.98
2018-03-15T05:11:53.203Z,10.96
2018-03-15T05:13:54.190Z,10.95
2018-03-15T05:14:54.608Z,10.93
2018-03-15T05:15:55.078Z,10.94
2018-03-15T05:16:55.550Z,10.94
2018-03-15T05:17:56.019Z,10.95
2018-03-15T05:18:56.487Z,10.97
2018-03-15T05:20:57.425Z,10.96
2018-03-15T05:21:57.900Z,10.97
2018-03-15T05:22:58.364Z,10.96
2018-03-15T05:23:58.841Z,10.97
2018-03-15T05:24:59.309Z,10.98
2018-03-15T05:25:59.782Z,10.98
2018-03-15T05:27:00.248Z,10.97
2018-03-15T05:28:00.719Z,11.00
2018-03-15T05:29:01.241Z,10.99
2018-03-15T05:30:01.661Z,10.99
2018-03-15T05:31:02.130Z,11.02
2018-03-15T05:32:02.601Z,11.02
2018-03-15T05:33:03.071Z,11.04
2018-03-15T05:34:03.745Z,11.09
2018-03-15T05:35:04.011Z,11.12
2018-03-15T05:36:04.514Z,11.14
2018-03-15T05:37:04.954Z,11.19
2018-03-15T05:38:05.422Z,11.21
2018-03-15T05:39:05.887Z,11.27
2018-03-15T05:40:06.361Z,11.30
2018-03-15T05:41:06.837Z,11.32
2018-03-15T05:42:07.303Z,11.39
2018-03-15T05:43:07.773Z,11.44
2018-03-15T05:44:08.289Z,11.47
2018-03-15T05:45:08.714Z,11.54
2018-03-15T05:46:09.184Z,11.58
2018-03-15T05:47:09.650Z,11.64
2018-03-15T05:48:10.125Z,11.70
2018-03-15T05:50:11.067Z,11.78
2018-03-15T05:51:11.541Z,11.82
2018-03-15T05:52:12.008Z,11.87
2018-03-15T05:53:12.478Z,11.93
2018-03-15T05:54:12.951Z,11.98
2018-03-15T05:55:13.419Z,12.03
2018-03-15T05:56:13.891Z,12.10
2018-03-15T05:57:14.358Z,12.15
2018-03-15T05:58:14.835Z,12.18
2018-03-15T05:59:15.304Z,12.21
2018-03-15T06:01:16.296Z,12.26
2018-03-15T06:03:17.184Z,12.33
2018-03-15T06:04:17.659Z,12.39
2018-03-15T06:05:18.134Z,12.41
2018-03-15T06:06:30.087Z,12.43
2018-03-15T06:07:19.073Z,12.44
2018-03-15T06:08:19.544Z,12.48
2018-03-15T06:09:20.013Z,12.48
2018-03-15T06:10:20.487Z,12.51
2018-03-15T06:11:21.019Z,12.54
2018-03-15T06:12:21.429Z,12.55
2018-03-15T06:13:21.901Z,12.57
2018-03-15T06:14:22.374Z,12.58
2018-03-15T06:15:22.838Z,12.59
2018-03-15T06:16:23.365Z,12.60
2018-03-15T06:18:24.260Z,12.63
2018-03-15T06:19:24.931Z,12.63
2018-03-15T06:20:25.202Z,12.64
2018-03-15T06:21:25.723Z,12.65
2018-03-15T06:22:26.143Z,12.68
2018-03-15T06:24:27.085Z,12.71
2018-03-15T06:25:27.553Z,12.72
2018-03-15T06:26:28.029Z,12.71
2018-03-15T06:27:28.495Z,12.74
2018-03-15T06:28:29.009Z,12.73
2018-03-15T06:30:29.915Z,12.73
2018-03-15T06:31:30.438Z,12.75
2018-03-15T06:33:31.329Z,12.79
2018-03-15T06:35:32.309Z,12.80
2018-03-15T06:36:32.743Z,12.82
2018-03-15T06:37:33.252Z,12.83
2018-03-15T06:39:34.158Z,12.84
2018-03-15T06:40:34.626Z,12.86
2018-03-15T06:41:35.102Z,12.89
2018-03-15T06:42:35.579Z,12.90
2018-03-15T06:43:36.044Z,12.93
2018-03-15T06:44:36.516Z,12.94
2018-03-15T06:45:37.331Z,12.95
2018-03-15T06:47:37.930Z,12.95
2018-03-15T06:48:38.744Z,12.97
2018-03-15T06:49:39.078Z,12.99
2018-03-15T06:50:39.344Z,13.00
2018-03-15T06:51:39.818Z,13.02
2018-03-15T06:52:40.292Z,13.04
2018-03-15T06:54:41.230Z,13.09
2018-03-15T06:55:41.708Z,13.10
2018-03-15T06:56:42.178Z,13.12
2018-03-15T06:57:42.649Z,13.14
2018-03-15T06:58:43.122Z,13.15
2018-03-15T06:59:43.593Z,13.18
2018-03-15T07:00:44.065Z,13.21
2018-03-15T07:02:45.010Z,13.24
2018-03-15T07:03:45.477Z,13.27
2018-03-15T07:04:45.956Z,13.31
2018-03-15T07:05:46.425Z,13.34
2018-03-15T07:06:46.944Z,13.37
2018-03-15T07:07:47.369Z,13.39
2018-03-15T07:08:47.838Z,13.43
2018-03-15T07:09:48.314Z,13.47
2018-03-15T07:10:48.786Z,13.50
2018-03-15T07:11:49.308Z,13.53
2018-03-15T07:12:49.731Z,13.55
2018-03-15T07:13:50.206Z,13.58
2018-03-15T07:14:50.676Z,13.63
2018-03-15T07:15:51.149Z,13.65
2018-03-15T07:16:51.672Z,13.69
2018-03-15T07:17:52.095Z,13.71
2018-03-15T07:18:52.559Z,13.74
2018-03-15T07:19:53.036Z,13.77
2018-03-15T07:20:53.509Z,13.77
2018-03-15T07:21:54.032Z,13.79
2018-03-15T07:22:54.488Z,13.83
2018-03-15T07:23:54.926Z,13.86
2018-03-15T07:24:55.401Z,13.88
2018-03-15T07:25:55.868Z,13.89
2018-03-15T07:26:56.396Z,13.91
2018-03-15T07:27:56.815Z,13.93
2018-03-15T07:28:57.288Z,13.92
2018-03-15T07:29:57.797Z,13.93
2018-03-15T07:30:58.234Z,13.94
2018-03-15T07:31:58.701Z,13.99
2018-03-15T07:32:59.179Z,13.99
2018-03-15T07:33:59.656Z,14.00
2018-03-15T07:35:00.123Z,14.02
2018-03-15T07:36:00.596Z,14.04
2018-03-15T07:37:01.069Z,14.04
2018-03-15T07:38:01.882Z,14.04
2018-03-15T07:39:02.012Z,14.06
2018-03-15T07:40:02.487Z,14.08
2018-03-15T07:41:02.962Z,14.10
2018-03-15T07:42:15.171Z,14.10
2018-03-15T07:43:03.909Z,14.13
2018-03-15T07:44:04.377Z,14.12
2018-03-15T07:46:05.324Z,14.15
2018-03-15T07:47:05.799Z,14.16
2018-03-15T07:49:06.742Z,14.17
2018-03-15T07:50:07.216Z,14.19
2018-03-15T07:51:07.685Z,14.18
2018-03-15T07:52:08.214Z,14.20
2018-03-15T07:54:09.114Z,14.18
2018-03-15T07:55:09.580Z,14.20
2018-03-15T07:56:10.056Z,14.22
2018-03-15T07:57:10.526Z,14.21
2018-03-15T07:58:11.000Z,14.23
2018-03-15T07:59:11.472Z,14.24
2018-03-15T08:00:12.287Z,14.25
2018-03-15T08:01:12.421Z,14.25
2018-03-15T08:02:24.174Z,14.27
2018-03-15T08:03:13.360Z,14.25
2018-03-15T08:04:13.836Z,14.26
2018-03-15T08:05:14.305Z,14.27
2018-03-15T08:06:14.783Z,14.26
2018-03-15T08:07:15.311Z,14.27
2018-03-15T08:08:15.731Z,14.30
2018-03-15T08:09:16.202Z,14.31
2018-03-15T08:10:16.678Z,14.32
2018-03-15T08:11:17.148Z,14.31
2018-03-15T08:13:18.095Z,14.34
2018-03-15T08:14:18.568Z,14.35
2018-03-15T08:15:19.045Z,14.37
2018-03-15T08:16:19.513Z,14.40
2018-03-15T08:17:19.992Z,14.44
2018-03-15T08:18:20.462Z,14.46
2018-03-15T08:19:20.934Z,14.49
2018-03-15T08:20:21.408Z,14.52
2018-03-15T08:21:21.881Z,14.55
2018-03-15T08:22:22.355Z,14.58
2018-03-15T08:23:22.829Z,14.59
2018-03-15T08:24:23.301Z,14.63
2018-03-15T08:25:23.776Z,14.66
2018-03-15T08:26:24.251Z,14.67
2018-03-15T08:27:24.717Z,14.69
2018-03-15T08:28:25.194Z,14.73
2018-03-15T08:29:25.667Z,14.74
2018-03-15T08:30:26.138Z,14.76
2018-03-15T08:31:26.617Z,14.78
2018-03-15T08:32:27.126Z,14.79
2018-03-15T08:33:27.566Z,14.79
2018-03-15T08:34:28.373Z,14.81
2018-03-15T08:36:28.982Z,14.82
2018-03-15T08:37:29.496Z,14.86
2018-03-15T08:38:29.931Z,14.87
2018-03-15T08:39:30.401Z,14.91
2018-03-15T08:40:30.878Z,14.94
2018-03-15T08:41:31.349Z,14.96
2018-03-15T08:42:31.878Z,15.00
2018-03-15T08:43:32.300Z,15.02
2018-03-15T08:44:32.774Z,15.03
2018-03-15T08:45:33.286Z,15.04
2018-03-15T08:46:33.723Z,15.02
2018-03-15T08:47:34.247Z,15.02
2018-03-15T08:48:34.670Z,15.02
2018-03-15T08:49:35.147Z,15.03
2018-03-15T08:50:35.619Z,15.06
2018-03-15T08:51:36.094Z,15.08
2018-03-15T08:52:36.567Z,15.12
2018-03-15T08:53:37.090Z,15.12
2018-03-15T08:54:37.516Z,15.12
2018-03-15T08:55:37.984Z,15.13
2018-03-15T08:56:38.499Z,15.13
2018-03-15T08:57:39.014Z,15.15
2018-03-15T08:58:39.412Z,15.15
2018-03-15T08:59:39.886Z,15.16
2018-03-15T09:00:40.360Z,15.17
2018-03-15T09:01:40.836Z,15.17
2018-03-15T09:02:41.310Z,15.16
2018-03-15T09:03:41.785Z,15.18
2018-03-15T09:04:42.451Z,15.18
2018-03-15T09:05:42.733Z,15.18
2018-03-15T09:06:43.208Z,15.20
2018-03-15T09:07:43.731Z,15.23
2018-03-15T09:08:44.366Z,15.24
2018-03-15T09:09:44.630Z,15.25
2018-03-15T09:10:45.105Z,15.29
2018-03-15T09:11:45.576Z,15.29
2018-03-15T09:12:46.055Z,15.30
2018-03-15T09:13:46.530Z,15.34
2018-03-15T09:14:47.005Z,15.34
2018-03-15T09:15:47.481Z,15.35
2018-03-15T09:16:47.952Z,15.32
2018-03-15T09:17:48.427Z,15.31
2018-03-15T09:19:49.383Z,15.27
2018-03-15T09:20:49.851Z,15.26
2018-03-15T09:21:50.328Z,15.28
2018-03-15T09:22:50.853Z,15.29
2018-03-15T09:23:51.273Z,15.31
2018-03-15T09:24:51.752Z,15.31
2018-03-15T09:25:52.229Z,15.29
2018-03-15T09:26:52.701Z,15.29
2018-03-15T09:27:53.176Z,15.28
2018-03-15T09:28:53.650Z,15.31
2018-03-15T09:29:54.127Z,15.34
2018-03-15T09:30:54.595Z,15.37
2018-03-15T09:31:55.076Z,15.37
2018-03-15T09:32:55.600Z,15.36
2018-03-15T09:33:56.028Z,15.33
2018-03-15T09:34:56.538Z,15.27
2018-03-15T09:35:56.975Z,15.20
2018-03-15T09:36:57.450Z,15.13
2018-03-15T09:37:57.976Z,15.04
2018-03-15T09:38:58.394Z,14.92
2018-03-15T09:39:58.873Z,14.80
2018-03-15T09:40:59.347Z,14.67
2018-03-15T09:41:59.823Z,14.53
2018-03-15T09:43:00.348Z,14.39
2018-03-15T09:44:00.773Z,14.22
2018-03-15T09:45:01.244Z,14.06
2018-03-15T09:46:01.718Z,13.90
2018-03-15T09:48:02.670Z,13.56
2018-03-15T09:49:03.140Z,13.40
2018-03-15T09:50:03.649Z,13.23
2018-03-15T09:51:04.130Z,13.07
2018-03-15T09:52:04.558Z,12.93
2018-03-15T09:53:05.124Z,12.81
2018-03-15T09:54:05.503Z,12.71
2018-03-15T09:55:05.972Z,12.61
2018-03-15T09:56:06.445Z,12.54
2018-03-15T09:57:06.917Z,12.48
2018-03-15T09:58:07.383Z,12.44
2018-03-15T09:59:07.861Z,12.42
2018-03-15T10:00:08.331Z,12.43
2018-03-15T10:01:08.801Z,12.45
2018-03-15T10:03:09.747Z,12.54
2018-03-15T10:04:10.217Z,12.60
2018-03-15T10:05:10.685Z,12.67
2018-03-15T10:06:11.159Z,12.73
2018-03-15T10:08:12.102Z,12.89
2018-03-15T10:09:12.567Z,12.97
2018-03-15T10:10:13.041Z,13.04
2018-03-15T10:11:13.514Z,13.12
2018-03-15T10:12:13.986Z,13.22
2018-03-15T10:13:14.656Z,13.31
2018-03-15T10:14:14.928Z,13.38
2018-03-15T10:16:15.870Z,13.54
2018-03-15T10:17:16.342Z,13.64
2018-03-15T10:18:16.816Z,13.75
2018-03-15T10:19:17.286Z,13.84
2018-03-15T10:20:17.755Z,13.93
2018-03-15T10:21:18.227Z,13.99
2018-03-15T10:23:19.222Z,14.12
2018-03-15T10:24:19.639Z,14.19
2018-03-15T10:26:20.588Z,14.33
2018-03-15T10:27:21.057Z,14.39
2018-03-15T10:28:21.534Z,14.45
2018-03-15T10:29:22.005Z,14.52
2018-03-15T10:30:22.476Z,14.60
2018-03-15T10:31:22.952Z,14.68
2018-03-15T10:32:23.424Z,14.76
2018-03-15T10:33:35.283Z,14.79
2018-03-15T10:34:24.405Z,14.85
2018-03-15T10:35:24.844Z,14.92
2018-03-15T10:37:25.790Z,15.06
2018-03-15T10:38:26.261Z,15.10
2018-03-15T10:39:26.735Z,15.16
2018-03-15T10:40:27.204Z,15.23
2018-03-15T10:41:27.681Z,15.29
2018-03-15T10:42:28.188Z,15.34
2018-03-15T10:43:28.628Z,15.39
2018-03-15T10:44:29.104Z,15.43
2018-03-15T10:45:29.577Z,15.51
2018-03-15T10:46:30.051Z,15.54
2018-03-15T10:47:30.523Z,15.58
2018-03-15T10:49:31.517Z,15.65
2018-03-15T10:50:31.946Z,15.70
2018-03-15T10:51:32.421Z,15.74
2018-03-15T10:53:33.373Z,15.79
2018-03-15T10:54:33.894Z,15.83
2018-03-15T10:55:34.319Z,15.89
2018-03-15T10:56:34.797Z,15.90
2018-03-15T10:58:35.745Z,15.98
2018-03-15T10:59:36.215Z,16.01
2018-03-15T11:00:36.694Z,16.04
2018-03-15T11:02:37.642Z,16.10
2018-03-15T11:04:38.598Z,16.04
2018-03-15T11:05:39.064Z,15.98
2018-03-15T11:06:39.545Z,15.90
2018-03-15T11:07:40.019Z,15.81
2018-03-15T11:08:40.489Z,15.71
2018-03-15T11:10:41.440Z,15.46
2018-03-15T11:11:41.923Z,15.33
2018-03-15T11:12:42.396Z,15.18
2018-03-15T11:13:42.868Z,15.05
2018-03-15T11:14:43.341Z,14.90
2018-03-15T11:15:43.818Z,14.75
2018-03-15T11:16:44.288Z,14.57
2018-03-15T11:17:44.765Z,14.39
2018-03-15T11:18:45.242Z,14.23
2018-03-15T11:19:45.717Z,14.04
2018-03-15T11:20:46.187Z,13.86
2018-03-15T11:21:46.660Z,13.69
2018-03-15T11:22:47.133Z,13.52
2018-03-15T11:23:47.614Z,13.36
2018-03-15T11:25:48.551Z,13.11
2018-03-15T11:26:49.026Z,13.02
2018-03-15T11:27:49.495Z,12.95
2018-03-15T11:28:49.969Z,12.88
2018-03-15T11:29:50.439Z,12.82
2018-03-15T11:30:51.113Z,12.77
2018-03-15T11:32:51.854Z,12.75
2018-03-15T11:33:52.326Z,12.79
2018-03-15T11:34:52.797Z,12.85
2018-03-15T11:35:53.318Z,12.94
2018-03-15T11:36:53.739Z,13.05
2018-03-15T11:37:54.209Z,13.14
2018-03-15T11:38:54.678Z,13.27
2018-03-15T11:39:55.155Z,13.38
2018-03-15T11:40:55.675Z,13.48
2018-03-15T11:41:56.092Z,13.60
2018-03-15T11:42:56.562Z,13.74
2018-03-15T11:43:57.036Z,13.83
2018-03-15T11:44:57.508Z,13.92
2018-03-15T11:46:09.358Z,14.02
2018-03-15T11:46:58.448Z,14.09
2018-03-15T11:47:58.924Z,14.18
2018-03-15T11:48:59.391Z,14.26
2018-03-15T11:49:59.912Z,14.36
2018-03-15T11:51:00.383Z,14.43
2018-03-15T11:52:00.811Z,14.52
2018-03-15T11:54:01.755Z,14.68
2018-03-15T11:55:02.228Z,14.75
2018-03-15T11:56:02.750Z,14.81
2018-03-15T11:57:03.172Z,14.86
2018-03-15T11:58:03.642Z,14.90
2018-03-15T12:00:04.590Z,15.00
2018-03-15T12:01:05.066Z,15.05
2018-03-15T12:02:05.532Z,15.12
2018-03-15T12:03:06.008Z,15.19
2018-03-15T12:04:06.481Z,15.27
2018-03-15T12:06:07.629Z,15.36
2018-03-15T12:07:07.903Z,15.41
2018-03-15T12:08:08.374Z,15.47
2018-03-15T12:09:08.848Z,15.51
2018-03-15T12:10:09.320Z,15.55
2018-03-15T12:11:09.795Z,15.61
2018-03-15T12:12:10.270Z,15.62
2018-03-15T12:13:10.742Z,15.64
2018-03-15T12:14:11.216Z,15.67
2018-03-15T12:15:11.724Z,15.73
2018-03-15T12:16:12.165Z,15.75
2018-03-15T12:17:12.688Z,15.78
2018-03-15T12:18:13.115Z,15.82
2018-03-15T12:19:13.586Z,15.82
2018-03-15T12:20:14.058Z,15.84
2018-03-15T12:21:14.538Z,15.87
2018-03-15T12:22:15.011Z,15.90
2018-03-15T12:23:15.483Z,15.92
2018-03-15T12:24:15.956Z,15.95
2018-03-15T12:25:16.435Z,15.97
2018-03-15T12:26:16.908Z,16.00
2018-03-15T12:27:17.382Z,16.05
2018-03-15T12:28:17.853Z,16.06
2018-03-15T12:29:18.333Z,16.08
2018-03-15T12:30:18.806Z,16.05
2018-03-15T12:31:19.337Z,16.03
2018-03-15T12:32:19.758Z,15.97
2018-03-15T12:33:20.232Z,15.88
2018-03-15T12:34:20.706Z,15.78
2018-03-15T12:35:21.183Z,15.66
2018-03-15T12:36:33.496Z,15.52
2018-03-15T12:37:22.133Z,15.37
2018-03-15T12:38:22.603Z,15.21
2018-03-15T12:39:23.081Z,15.05
2018-03-15T12:40:23.556Z,14.88
2018-03-15T12:41:24.030Z,14.72
2018-03-15T12:42:24.505Z,14.53
2018-03-15T12:43:24.978Z,14.34
2018-03-15T12:44:25.454Z,14.16
2018-03-15T12:45:25.926Z,13.97
2018-03-15T12:46:26.448Z,13.80
2018-03-15T12:47:26.876Z,13.62
2018-03-15T12:48:27.348Z,13.47
2018-03-15T12:49:27.819Z,13.31
2018-03-15T12:50:28.294Z,13.17
2018-03-15T12:51:28.762Z,13.03
2018-03-15T12:52:29.233Z,12.91
2018-03-15T12:53:29.708Z,12.83
2018-03-15T12:54:30.176Z,12.76
2018-03-15T12:55:30.650Z,12.71
2018-03-15T12:56:31.170Z,12.67
2018-03-15T12:57:31.633Z,12.65
2018-03-15T12:58:32.064Z,12.66
2018-03-15T13:00:33.036Z,12.73
2018-03-15T13:01:45.461Z,12.78
2018-03-15T13:02:33.946Z,12.84
2018-03-15T13:03:34.458Z,12.92
2018-03-15T13:04:34.888Z,12.98
2018-03-15T13:05:35.358Z,13.06
2018-03-15T13:06:36.031Z,13.15
2018-03-15T13:07:36.300Z,13.24
2018-03-15T13:08:36.771Z,13.34
2018-03-15T13:09:37.242Z,13.45
2018-03-15T13:10:37.711Z,13.54
2018-03-15T13:11:38.183Z,13.63
2018-03-15T13:12:38.653Z,13.72
2018-03-15T13:13:39.120Z,13.80
2018-03-15T13:14:39.596Z,13.90
2018-03-15T13:16:40.589Z,14.10
2018-03-15T13:18:41.480Z,14.25
2018-03-15T13:19:41.949Z,14.35
2018-03-15T13:20:42.424Z,14.43
2018-03-15T13:24:44.306Z,14.69
2018-03-15T13:25:44.785Z,14.78
2018-03-15T13:26:45.303Z,14.83
2018-03-15T13:27:45.725Z,14.88
2018-03-15T13:28:46.203Z,14.95
2018-03-15T13:29:46.665Z,15.01
2018-03-15T13:30:47.139Z,15.09
2018-03-15T13:31:47.611Z,15.16
2018-03-15T13:32:48.083Z,15.22
2018-03-15T13:33:48.555Z,15.29
2018-03-15T13:34:49.027Z,15.38
2018-03-15T13:35:49.504Z,15.42
2018-03-15T13:37:01.463Z,15.45
2018-03-15T13:37:50.452Z,15.49
2018-03-15T13:38:50.919Z,15.55
2018-03-15T13:39:51.394Z,15.58
2018-03-15T13:40:51.872Z,15.61
2018-03-15T13:41:52.395Z,15.67
2018-03-15T13:42:52.818Z,15.71
2018-03-15T13:43:53.292Z,15.73
2018-03-15T13:45:54.246Z,15.80
2018-03-15T13:46:54.714Z,15.83
2018-03-15T13:47:55.186Z,15.86
2018-03-15T13:48:55.662Z,15.89
2018-03-15T13:49:56.134Z,15.92
2018-03-15T13:51:57.134Z,15.96